Accueil
METAR-TAF:

METAR-TAF

Aéroports :

Chanute, Kansas, États-Unis

latitude: 37-40-13N, longitude: 095-29-03W, altitude: 305 m

Observation

Le bulletin a été fait il y a 55 minutes, à 00:52 UTC
Vent 10 kt de nord
Température -6°C
Humidité 62%
Pression 1037 hPa
Visibilité: 16.1 km
Ciel clair

METAR: KCNU 120052Z AUTO 35010KT 10SM CLR M06/M12 A3062 RMK AO2 SLP378 T10611117 $

Heure: 19:47 (01:47 UTC)

Prévision

Le bulletin a été fait il y a 11 minutes, à 01:36 UTC
Prévision valable du 12 à 02 UTC au 12 à 24 UTC
Vent 10 kt de nord
Visibilité: 10 km
Quelques nuages à une hauteur de 25000 ft
A partir de 12 à 0900 UTC
Vent 5 kt de direction variable
Visibilité: 10 km
Ciel clair
A partir de 12 à 2100 UTC
Vent 8 kt de sud
Visibilité: 10 km
Ciel clair

TAF: KCNU 120136Z 1202/1224 35010KT P6SM FEW250 FM120900 VRB05KT P6SM SKC FM122100 18008KT P6SM SKC

Observations et prévisions météorologiques de plus de 4000 aéroports (messages METAR et TAF).

Les stations disponibles sont représentées par des disques jaunes et rouges sur la carte.

Passer la souris dessus pour voir le nom de la station.

Cliquer dessus pour voir les observations et prévisions météorologiques.

Pour changer de carte: cliquez sur les boutons verts avec une croix noire pour zoomer, sur le bouton vert avec un tiret pour effectuer un zoom arrière, ou sur les flèches vertes pour les cartes adjacentes.


METAR-TAF: